sensor_id;sensor_type;location;lat;lon;timestamp;pressure;altitude;pressure_sealevel;temperature;humidity
20930;BME280;21895;47.072;15.132;2023-04-20T00:01:13;96674.00;;;8.79;72.56
20930;BME280;21895;47.072;15.132;2023-04-20T00:03:39;96668.00;;;8.81;72.92
20930;BME280;21895;47.072;15.132;2023-04-20T00:06:06;96673.00;;;8.80;72.96
20930;BME280;21895;47.072;15.132;2023-04-20T00:08:33;96671.00;;;8.55;73.80
20930;BME280;21895;47.072;15.132;2023-04-20T00:10:59;96668.00;;;8.52;74.88
20930;BME280;21895;47.072;15.132;2023-04-20T00:13:26;96680.00;;;8.49;74.76
20930;BME280;21895;47.072;15.132;2023-04-20T00:15:52;96675.00;;;8.54;74.36
20930;BME280;21895;47.072;15.132;2023-04-20T00:18:19;96671.00;;;8.53;74.57
20930;BME280;21895;47.072;15.132;2023-04-20T00:20:45;96675.00;;;8.57;75.11
20930;BME280;21895;47.072;15.132;2023-04-20T00:23:12;96664.00;;;8.66;75.21
20930;BME280;21895;47.072;15.132;2023-04-20T00:25:38;96663.00;;;8.79;74.86
20930;BME280;21895;47.072;15.132;2023-04-20T00:28:05;96659.00;;;8.94;73.96
20930;BME280;21895;47.072;15.132;2023-04-20T00:30:31;96654.00;;;8.75;73.86
20930;BME280;21895;47.072;15.132;2023-04-20T00:32:58;96654.00;;;8.65;74.41
20930;BME280;21895;47.072;15.132;2023-04-20T00:35:24;96653.00;;;8.66;74.73
20930;BME280;21895;47.072;15.132;2023-04-20T00:37:51;96654.00;;;8.68;74.51
20930;BME280;21895;47.072;15.132;2023-04-20T00:40:18;96655.00;;;8.72;74.87
20930;BME280;21895;47.072;15.132;2023-04-20T00:42:44;96649.00;;;8.78;74.87
20930;BME280;21895;47.072;15.132;2023-04-20T00:45:11;96645.00;;;8.82;75.10
20930;BME280;21895;47.072;15.132;2023-04-20T00:47:37;96655.00;;;8.87;75.21
20930;BME280;21895;47.072;15.132;2023-04-20T00:50:06;96647.00;;;8.92;74.73
20930;BME280;21895;47.072;15.132;2023-04-20T00:52:33;96646.00;;;8.81;75.95
20930;BME280;21895;47.072;15.132;2023-04-20T00:55:00;96642.00;;;8.72;76.29
20930;BME280;21895;47.072;15.132;2023-04-20T00:57:27;96630.00;;;8.72;76.35
20930;BME280;21895;47.072;15.132;2023-04-20T00:59:53;96633.00;;;8.76;75.37
20930;BME280;21895;47.072;15.132;2023-04-20T01:02:20;96636.00;;;8.80;75.41
20930;BME280;21895;47.072;15.132;2023-04-20T01:04:47;96626.00;;;8.77;75.93
20930;BME280;21895;47.072;15.132;2023-04-20T01:07:13;96623.00;;;8.82;75.94
20930;BME280;21895;47.072;15.132;2023-04-20T01:09:40;96628.00;;;8.93;75.80
20930;BME280;21895;47.072;15.132;2023-04-20T01:12:08;96620.00;;;8.81;76.05
20930;BME280;21895;47.072;15.132;2023-04-20T01:14:35;96621.00;;;8.85;76.15
20930;BME280;21895;47.072;15.132;2023-04-20T01:17:01;96612.00;;;8.80;76.19
20930;BME280;21895;47.072;15.132;2023-04-20T01:19:32;96613.00;;;8.74;76.60
20930;BME280;21895;47.072;15.132;2023-04-20T01:21:58;96609.00;;;8.75;76.44
20930;BME280;21895;47.072;15.132;2023-04-20T01:24:25;96611.00;;;8.66;76.96
20930;BME280;21895;47.072;15.132;2023-04-20T01:26:51;96617.00;;;8.66;77.68
20930;BME280;21895;47.072;15.132;2023-04-20T01:29:18;96610.00;;;8.55;77.99
20930;BME280;21895;47.072;15.132;2023-04-20T01:31:45;96613.00;;;8.49;78.96
20930;BME280;21895;47.072;15.132;2023-04-20T01:34:11;96615.00;;;8.43;79.05
20930;BME280;21895;47.072;15.132;2023-04-20T01:36:38;96609.00;;;8.50;79.51
20930;BME280;21895;47.072;15.132;2023-04-20T01:39:07;96614.00;;;8.63;78.46
20930;BME280;21895;47.072;15.132;2023-04-20T01:41:34;96604.00;;;8.62;77.70
20930;BME280;21895;47.072;15.132;2023-04-20T01:44:01;96599.00;;;8.58;77.95
20930;BME280;21895;47.072;15.132;2023-04-20T01:46:27;96598.00;;;8.63;77.23
20930;BME280;21895;47.072;15.132;2023-04-20T01:48:54;96597.00;;;8.64;77.13
20930;BME280;21895;47.072;15.132;2023-04-20T01:51:20;96598.00;;;8.63;76.93
20930;BME280;21895;47.072;15.132;2023-04-20T01:53:47;96602.00;;;8.72;76.76
20930;BME280;21895;47.072;15.132;2023-04-20T01:56:13;96595.00;;;8.66;77.16
20930;BME280;21895;47.072;15.132;2023-04-20T01:58:40;96597.00;;;8.55;77.17
20930;BME280;21895;47.072;15.132;2023-04-20T02:01:07;96598.00;;;8.63;77.00
20930;BME280;21895;47.072;15.132;2023-04-20T02:03:33;96596.00;;;8.50;77.44
20930;BME280;21895;47.072;15.132;2023-04-20T02:06:00;96594.00;;;8.54;77.79
20930;BME280;21895;47.072;15.132;2023-04-20T02:08:27;96588.00;;;8.55;77.49
20930;BME280;21895;47.072;15.132;2023-04-20T02:10:53;96594.00;;;8.62;77.26
20930;BME280;21895;47.072;15.132;2023-04-20T02:13:20;96589.00;;;8.62;77.07
20930;BME280;21895;47.072;15.132;2023-04-20T02:15:46;96587.00;;;8.64;76.42
20930;BME280;21895;47.072;15.132;2023-04-20T02:18:13;96591.00;;;8.62;76.82
20930;BME280;21895;47.072;15.132;2023-04-20T02:20:41;96590.00;;;8.64;76.91
20930;BME280;21895;47.072;15.132;2023-04-20T02:23:08;96584.00;;;8.59;77.10
20930;BME280;21895;47.072;15.132;2023-04-20T02:25:34;96588.00;;;8.68;77.36
20930;BME280;21895;47.072;15.132;2023-04-20T02:28:01;96588.00;;;8.68;77.27
20930;BME280;21895;47.072;15.132;2023-04-20T02:30:28;96593.00;;;8.63;76.96
20930;BME280;21895;47.072;15.132;2023-04-20T02:32:54;96583.00;;;8.67;77.33
20930;BME280;21895;47.072;15.132;2023-04-20T02:35:21;96583.00;;;8.71;76.97
20930;BME280;21895;47.072;15.132;2023-04-20T02:37:47;96581.00;;;8.72;77.18
20930;BME280;21895;47.072;15.132;2023-04-20T02:40:14;96583.00;;;8.65;77.65
20930;BME280;21895;47.072;15.132;2023-04-20T02:42:41;96576.00;;;8.70;77.35
20930;BME280;21895;47.072;15.132;2023-04-20T02:45:09;96586.00;;;8.67;77.31
20930;BME280;21895;47.072;15.132;2023-04-20T02:47:35;96579.00;;;8.74;76.97
20930;BME280;21895;47.072;15.132;2023-04-20T02:50:02;96582.00;;;8.68;76.52
20930;BME280;21895;47.072;15.132;2023-04-20T02:52:29;96581.00;;;8.75;77.37
20930;BME280;21895;47.072;15.132;2023-04-20T02:54:56;96577.00;;;8.75;77.12
20930;BME280;21895;47.072;15.132;2023-04-20T02:57:22;96583.00;;;8.75;76.80
20930;BME280;21895;47.072;15.132;2023-04-20T02:59:50;96584.00;;;8.70;76.80
20930;BME280;21895;47.072;15.132;2023-04-20T03:02:17;96580.00;;;8.70;77.31
20930;BME280;21895;47.072;15.132;2023-04-20T03:04:43;96576.00;;;8.69;77.18
20930;BME280;21895;47.072;15.132;2023-04-20T03:07:10;96577.00;;;8.68;76.94
20930;BME280;21895;47.072;15.132;2023-04-20T03:09:36;96575.00;;;8.68;77.43
20930;BME280;21895;47.072;15.132;2023-04-20T03:12:04;96579.00;;;8.66;77.36
20930;BME280;21895;47.072;15.132;2023-04-20T03:14:30;96579.00;;;8.67;77.67
20930;BME280;21895;47.072;15.132;2023-04-20T03:16:57;96572.00;;;8.75;77.54
20930;BME280;21895;47.072;15.132;2023-04-20T03:19:24;96571.00;;;8.72;77.31
20930;BME280;21895;47.072;15.132;2023-04-20T03:21:50;96569.00;;;8.63;77.24
20930;BME280;21895;47.072;15.132;2023-04-20T03:24:17;96568.00;;;8.64;77.85
20930;BME280;21895;47.072;15.132;2023-04-20T03:26:44;96561.00;;;8.68;77.98
20930;BME280;21895;47.072;15.132;2023-04-20T03:29:10;96570.00;;;8.70;77.70
20930;BME280;21895;47.072;15.132;2023-04-20T03:31:37;96579.00;;;8.69;77.83
20930;BME280;21895;47.072;15.132;2023-04-20T03:34:03;96575.00;;;8.63;77.67
20930;BME280;21895;47.072;15.132;2023-04-20T03:36:30;96575.00;;;8.63;78.32
20930;BME280;21895;47.072;15.132;2023-04-20T03:38:57;96579.00;;;8.66;78.21
20930;BME280;21895;47.072;15.132;2023-04-20T03:41:24;96586.00;;;8.72;78.11
20930;BME280;21895;47.072;15.132;2023-04-20T03:43:50;96585.00;;;8.73;78.02
20930;BME280;21895;47.072;15.132;2023-04-20T03:46:17;96576.00;;;8.72;78.17
20930;BME280;21895;47.072;15.132;2023-04-20T03:48:43;96586.00;;;8.75;77.67
20930;BME280;21895;47.072;15.132;2023-04-20T03:51:10;96579.00;;;8.67;77.98
20930;BME280;21895;47.072;15.132;2023-04-20T03:53:36;96578.00;;;8.62;77.84
20930;BME280;21895;47.072;15.132;2023-04-20T03:56:05;96582.00;;;8.64;77.43
20930;BME280;21895;47.072;15.132;2023-04-20T03:58:32;96580.00;;;8.60;77.59
20930;BME280;21895;47.072;15.132;2023-04-20T04:01:04;96579.00;;;8.64;77.42
20930;BME280;21895;47.072;15.132;2023-04-20T04:03:34;96580.00;;;8.59;77.69
20930;BME280;21895;47.072;15.132;2023-04-20T04:06:02;96580.00;;;8.55;77.76
20930;BME280;21895;47.072;15.132;2023-04-20T04:08:29;96584.00;;;8.54;77.88
20930;BME280;21895;47.072;15.132;2023-04-20T04:10:57;96592.00;;;8.60;78.09
20930;BME280;21895;47.072;15.132;2023-04-20T04:13:23;96587.00;;;8.57;78.79
20930;BME280;21895;47.072;15.132;2023-04-20T04:15:50;96588.00;;;8.65;79.00
20930;BME280;21895;47.072;15.132;2023-04-20T04:18:16;96587.00;;;8.67;78.93
20930;BME280;21895;47.072;15.132;2023-04-20T04:20:43;96581.00;;;8.60;79.04
20930;BME280;21895;47.072;15.132;2023-04-20T04:23:09;96580.00;;;8.68;78.99
20930;BME280;21895;47.072;15.132;2023-04-20T04:25:37;96585.00;;;8.73;79.19
20930;BME280;21895;47.072;15.132;2023-04-20T04:28:05;96581.00;;;8.70;78.70
20930;BME280;21895;47.072;15.132;2023-04-20T04:30:32;96591.00;;;8.70;78.53
20930;BME280;21895;47.072;15.132;2023-04-20T04:32:59;96587.00;;;8.69;78.63
20930;BME280;21895;47.072;15.132;2023-04-20T04:35:25;96593.00;;;8.73;78.38
20930;BME280;21895;47.072;15.132;2023-04-20T04:37:52;96593.00;;;8.75;78.33
20930;BME280;21895;47.072;15.132;2023-04-20T04:40:19;96593.00;;;8.86;77.92
20930;BME280;21895;47.072;15.132;2023-04-20T04:42:46;96594.00;;;8.82;77.88
20930;BME280;21895;47.072;15.132;2023-04-20T04:45:13;96600.00;;;8.85;78.20
20930;BME280;21895;47.072;15.132;2023-04-20T04:47:41;96599.00;;;9.00;77.42
20930;BME280;21895;47.072;15.132;2023-04-20T04:50:09;96604.00;;;8.98;77.13
20930;BME280;21895;47.072;15.132;2023-04-20T04:52:36;96605.00;;;8.91;77.51
20930;BME280;21895;47.072;15.132;2023-04-20T04:55:03;96619.00;;;8.92;77.96
20930;BME280;21895;47.072;15.132;2023-04-20T04:57:33;96616.00;;;8.96;78.00
20930;BME280;21895;47.072;15.132;2023-04-20T05:00:00;96612.00;;;8.92;77.86
20930;BME280;21895;47.072;15.132;2023-04-20T05:02:26;96611.00;;;9.11;77.63
20930;BME280;21895;47.072;15.132;2023-04-20T05:04:53;96617.00;;;9.05;77.40
20930;BME280;21895;47.072;15.132;2023-04-20T05:07:21;96621.00;;;9.09;77.37
20930;BME280;21895;47.072;15.132;2023-04-20T05:09:48;96618.00;;;9.13;77.27
20930;BME280;21895;47.072;15.132;2023-04-20T05:12:14;96615.00;;;9.12;77.75
20930;BME280;21895;47.072;15.132;2023-04-20T05:14:41;96612.00;;;9.10;77.58
20930;BME280;21895;47.072;15.132;2023-04-20T05:17:07;96613.00;;;9.19;77.18
20930;BME280;21895;47.072;15.132;2023-04-20T05:19:34;96611.00;;;9.18;77.04
20930;BME280;21895;47.072;15.132;2023-04-20T05:22:00;96620.00;;;9.22;77.55
20930;BME280;21895;47.072;15.132;2023-04-20T05:24:27;96625.00;;;9.31;77.28
20930;BME280;21895;47.072;15.132;2023-04-20T05:26:54;96613.00;;;9.37;77.25
20930;BME280;21895;47.072;15.132;2023-04-20T05:29:20;96622.00;;;9.56;76.54
20930;BME280;21895;47.072;15.132;2023-04-20T05:31:47;96620.00;;;9.57;76.08
20930;BME280;21895;47.072;15.132;2023-04-20T05:34:13;96626.00;;;9.64;75.52
20930;BME280;21895;47.072;15.132;2023-04-20T05:36:40;96626.00;;;9.79;75.19
20930;BME280;21895;47.072;15.132;2023-04-20T05:39:06;96629.00;;;9.87;74.40
20930;BME280;21895;47.072;15.132;2023-04-20T05:41:33;96628.00;;;9.92;74.35
20930;BME280;21895;47.072;15.132;2023-04-20T05:44:00;96628.00;;;9.95;73.93
20930;BME280;21895;47.072;15.132;2023-04-20T05:46:26;96633.00;;;10.02;73.77
20930;BME280;21895;47.072;15.132;2023-04-20T05:48:54;96634.00;;;10.00;73.03
20930;BME280;21895;47.072;15.132;2023-04-20T05:51:21;96633.00;;;10.00;73.11
20930;BME280;21895;47.072;15.132;2023-04-20T05:53:47;96636.00;;;10.02;72.97
20930;BME280;21895;47.072;15.132;2023-04-20T05:56:14;96640.00;;;10.08;72.70
20930;BME280;21895;47.072;15.132;2023-04-20T05:58:40;96642.00;;;10.01;73.32
20930;BME280;21895;47.072;15.132;2023-04-20T06:01:07;96645.00;;;9.94;74.01
20930;BME280;21895;47.072;15.132;2023-04-20T06:03:33;96644.00;;;10.07;73.93
20930;BME280;21895;47.072;15.132;2023-04-20T06:06:00;96642.00;;;10.17;72.97
20930;BME280;21895;47.072;15.132;2023-04-20T06:08:27;96650.00;;;10.17;73.15
20930;BME280;21895;47.072;15.132;2023-04-20T06:10:54;96640.00;;;10.17;74.01
20930;BME280;21895;47.072;15.132;2023-04-20T06:13:22;96647.00;;;10.10;73.82
20930;BME280;21895;47.072;15.132;2023-04-20T06:15:49;96645.00;;;10.17;73.16
20930;BME280;21895;47.072;15.132;2023-04-20T06:18:18;96650.00;;;10.29;72.96
20930;BME280;21895;47.072;15.132;2023-04-20T06:20:45;96649.00;;;10.25;72.62
20930;BME280;21895;47.072;15.132;2023-04-20T06:23:11;96645.00;;;10.29;72.14
20930;BME280;21895;47.072;15.132;2023-04-20T06:25:38;96649.00;;;10.34;72.31
20930;BME280;21895;47.072;15.132;2023-04-20T06:28:05;96647.00;;;10.42;72.56
20930;BME280;21895;47.072;15.132;2023-04-20T06:30:33;96651.00;;;10.31;72.16
20930;BME280;21895;47.072;15.132;2023-04-20T06:33:00;96651.00;;;10.47;72.13
20930;BME280;21895;47.072;15.132;2023-04-20T06:35:27;96639.00;;;10.54;72.13
20930;BME280;21895;47.072;15.132;2023-04-20T06:37:54;96650.00;;;10.59;71.53
20930;BME280;21895;47.072;15.132;2023-04-20T06:40:26;96652.00;;;10.76;71.31
20930;BME280;21895;47.072;15.132;2023-04-20T06:42:52;96659.00;;;10.90;71.12
20930;BME280;21895;47.072;15.132;2023-04-20T06:45:19;96661.00;;;10.91;70.04
20930;BME280;21895;47.072;15.132;2023-04-20T06:47:45;96668.00;;;10.89;70.33
20930;BME280;21895;47.072;15.132;2023-04-20T06:50:12;96655.00;;;10.94;70.48
20930;BME280;21895;47.072;15.132;2023-04-20T06:52:39;96656.00;;;11.00;70.27
20930;BME280;21895;47.072;15.132;2023-04-20T06:55:07;96649.00;;;11.24;70.52
20930;BME280;21895;47.072;15.132;2023-04-20T06:57:34;96650.00;;;11.24;70.22
20930;BME280;21895;47.072;15.132;2023-04-20T07:00:00;96653.00;;;11.48;68.43
20930;BME280;21895;47.072;15.132;2023-04-20T07:02:27;96655.00;;;11.53;68.64
20930;BME280;21895;47.072;15.132;2023-04-20T07:04:59;96653.00;;;11.62;67.76
20930;BME280;21895;47.072;15.132;2023-04-20T07:07:27;96656.00;;;11.73;67.37
20930;BME280;21895;47.072;15.132;2023-04-20T07:09:53;96658.00;;;11.93;67.67
20930;BME280;21895;47.072;15.132;2023-04-20T07:12:20;96652.00;;;12.04;67.11
20930;BME280;21895;47.072;15.132;2023-04-20T07:14:46;96660.00;;;12.20;66.10
20930;BME280;21895;47.072;15.132;2023-04-20T07:17:13;96662.00;;;12.26;65.94
20930;BME280;21895;47.072;15.132;2023-04-20T07:19:39;96663.00;;;12.30;65.24
20930;BME280;21895;47.072;15.132;2023-04-20T07:22:06;96665.00;;;12.35;64.34
20930;BME280;21895;47.072;15.132;2023-04-20T07:24:32;96669.00;;;12.36;65.09
20930;BME280;21895;47.072;15.132;2023-04-20T07:26:59;96666.00;;;12.49;64.92
20930;BME280;21895;47.072;15.132;2023-04-20T07:29:26;96667.00;;;12.60;64.34
20930;BME280;21895;47.072;15.132;2023-04-20T07:31:53;96667.00;;;12.63;63.64
20930;BME280;21895;47.072;15.132;2023-04-20T07:34:19;96668.00;;;12.67;63.16
20930;BME280;21895;47.072;15.132;2023-04-20T07:36:46;96672.00;;;12.93;63.37
20930;BME280;21895;47.072;15.132;2023-04-20T07:39:13;96671.00;;;13.45;62.57
20930;BME280;21895;47.072;15.132;2023-04-20T07:41:40;96665.00;;;13.56;61.22
20930;BME280;21895;47.072;15.132;2023-04-20T07:44:07;96666.00;;;13.77;60.47
20930;BME280;21895;47.072;15.132;2023-04-20T07:46:33;96664.00;;;13.69;60.67
20930;BME280;21895;47.072;15.132;2023-04-20T07:49:00;96673.00;;;13.71;61.19
20930;BME280;21895;47.072;15.132;2023-04-20T07:51:26;96670.00;;;13.83;61.45
20930;BME280;21895;47.072;15.132;2023-04-20T07:53:55;96664.00;;;13.98;61.37
20930;BME280;21895;47.072;15.132;2023-04-20T07:56:22;96668.00;;;14.12;60.58
20930;BME280;21895;47.072;15.132;2023-04-20T07:58:48;96668.00;;;14.15;60.09
20930;BME280;21895;47.072;15.132;2023-04-20T08:01:15;96667.00;;;14.22;60.75
20930;BME280;21895;47.072;15.132;2023-04-20T08:03:41;96663.00;;;14.66;59.93
20930;BME280;21895;47.072;15.132;2023-04-20T08:06:09;96672.00;;;14.47;60.56
20930;BME280;21895;47.072;15.132;2023-04-20T08:08:35;96672.00;;;14.71;60.33
20930;BME280;21895;47.072;15.132;2023-04-20T08:11:02;96661.00;;;14.80;59.80
20930;BME280;21895;47.072;15.132;2023-04-20T08:13:29;96667.00;;;14.84;58.59
20930;BME280;21895;47.072;15.132;2023-04-20T08:15:55;96665.00;;;14.76;58.29
20930;BME280;21895;47.072;15.132;2023-04-20T08:18:22;96666.00;;;14.97;57.78
20930;BME280;21895;47.072;15.132;2023-04-20T08:20:49;96659.00;;;15.30;57.35
20930;BME280;21895;47.072;15.132;2023-04-20T08:23:16;96662.00;;;15.51;56.31
20930;BME280;21895;47.072;15.132;2023-04-20T08:25:43;96656.00;;;15.53;55.98
20930;BME280;21895;47.072;15.132;2023-04-20T08:28:10;96660.00;;;15.69;55.98
20930;BME280;21895;47.072;15.132;2023-04-20T08:30:54;96656.00;;;15.60;53.72
20930;BME280;21895;47.072;15.132;2023-04-20T08:33:20;96655.00;;;15.71;53.16
20930;BME280;21895;47.072;15.132;2023-04-20T08:35:49;96652.00;;;16.19;51.34
20930;BME280;21895;47.072;15.132;2023-04-20T08:38:16;96665.00;;;15.86;46.21
20930;BME280;21895;47.072;15.132;2023-04-20T08:40:49;96663.00;;;15.88;43.87
20930;BME280;21895;47.072;15.132;2023-04-20T08:43:16;96658.00;;;16.22;45.84
20930;BME280;21895;47.072;15.132;2023-04-20T08:45:48;96654.00;;;16.26;43.82
20930;BME280;21895;47.072;15.132;2023-04-20T08:48:18;96658.00;;;16.48;42.39
20930;BME280;21895;47.072;15.132;2023-04-20T08:50:47;96655.00;;;16.46;43.02
20930;BME280;21895;47.072;15.132;2023-04-20T08:53:14;96653.00;;;16.40;43.23
20930;BME280;21895;47.072;15.132;2023-04-20T08:55:40;96661.00;;;16.38;43.02
20930;BME280;21895;47.072;15.132;2023-04-20T08:58:07;96655.00;;;16.29;46.53
20930;BME280;21895;47.072;15.132;2023-04-20T09:00:33;96653.00;;;16.45;47.08
20930;BME280;21895;47.072;15.132;2023-04-20T09:03:00;96655.00;;;16.26;47.57
20930;BME280;21895;47.072;15.132;2023-04-20T09:05:29;96651.00;;;16.32;47.14
20930;BME280;21895;47.072;15.132;2023-04-20T09:07:59;96653.00;;;16.35;46.37
20930;BME280;21895;47.072;15.132;2023-04-20T09:10:38;96658.00;;;16.24;44.40
20930;BME280;21895;47.072;15.132;2023-04-20T09:13:05;96665.00;;;16.44;44.03
20930;BME280;21895;47.072;15.132;2023-04-20T09:15:32;96655.00;;;16.28;44.35
20930;BME280;21895;47.072;15.132;2023-04-20T09:17:58;96656.00;;;16.31;46.04
20930;BME280;21895;47.072;15.132;2023-04-20T09:20:33;96653.00;;;16.26;45.97
20930;BME280;21895;47.072;15.132;2023-04-20T09:23:18;96658.00;;;16.41;45.13
20930;BME280;21895;47.072;15.132;2023-04-20T09:25:49;96657.00;;;16.49;43.91
20930;BME280;21895;47.072;15.132;2023-04-20T09:28:15;96651.00;;;16.08;46.12
20930;BME280;21895;47.072;15.132;2023-04-20T09:30:48;96650.00;;;16.26;45.59
20930;BME280;21895;47.072;15.132;2023-04-20T09:33:16;96657.00;;;16.44;43.71
20930;BME280;21895;47.072;15.132;2023-04-20T09:35:45;96654.00;;;16.33;44.65
20930;BME280;21895;47.072;15.132;2023-04-20T09:38:16;96651.00;;;16.62;43.72
20930;BME280;21895;47.072;15.132;2023-04-20T09:40:42;96651.00;;;16.59;43.76
20930;BME280;21895;47.072;15.132;2023-04-20T09:43:18;96656.00;;;16.81;43.90
20930;BME280;21895;47.072;15.132;2023-04-20T09:45:45;96656.00;;;16.57;44.20
20930;BME280;21895;47.072;15.132;2023-04-20T09:48:11;96656.00;;;16.55;43.92
20930;BME280;21895;47.072;15.132;2023-04-20T09:50:45;96653.00;;;16.72;42.37
20930;BME280;21895;47.072;15.132;2023-04-20T09:53:17;96646.00;;;16.74;42.67
20930;BME280;21895;47.072;15.132;2023-04-20T09:55:49;96645.00;;;16.81;43.85
20930;BME280;21895;47.072;15.132;2023-04-20T09:58:18;96647.00;;;16.82;43.11
20930;BME280;21895;47.072;15.132;2023-04-20T10:00:49;96639.00;;;16.90;43.90
20930;BME280;21895;47.072;15.132;2023-04-20T10:03:19;96647.00;;;17.04;43.31
20930;BME280;21895;47.072;15.132;2023-04-20T10:05:47;96646.00;;;17.20;43.39
20930;BME280;21895;47.072;15.132;2023-04-20T10:08:13;96646.00;;;17.34;42.43
20930;BME280;21895;47.072;15.132;2023-04-20T10:10:49;96651.00;;;17.08;42.24
20930;BME280;21895;47.072;15.132;2023-04-20T10:13:16;96645.00;;;16.89;45.02
20930;BME280;21895;47.072;15.132;2023-04-20T10:15:45;96651.00;;;16.83;45.11
20930;BME280;21895;47.072;15.132;2023-04-20T10:18:22;96644.00;;;17.04;44.74
20930;BME280;21895;47.072;15.132;2023-04-20T10:20:51;96653.00;;;17.02;43.89
20930;BME280;21895;47.072;15.132;2023-04-20T10:23:29;96645.00;;;16.82;43.53
20930;BME280;21895;47.072;15.132;2023-04-20T10:25:57;96657.00;;;16.68;44.68
20930;BME280;21895;47.072;15.132;2023-04-20T10:28:41;96648.00;;;16.96;43.34
20930;BME280;21895;47.072;15.132;2023-04-20T10:31:11;96644.00;;;16.95;44.57
20930;BME280;21895;47.072;15.132;2023-04-20T10:33:54;96648.00;;;17.07;45.00
20930;BME280;21895;47.072;15.132;2023-04-20T10:36:28;96642.00;;;17.41;45.02
20930;BME280;21895;47.072;15.132;2023-04-20T10:38:55;96643.00;;;17.49;43.44
20930;BME280;21895;47.072;15.132;2023-04-20T10:41:22;96640.00;;;17.49;43.18
20930;BME280;21895;47.072;15.132;2023-04-20T10:43:48;96640.00;;;17.40;43.94
20930;BME280;21895;47.072;15.132;2023-04-20T10:46:21;96630.00;;;17.33;44.61
20930;BME280;21895;47.072;15.132;2023-04-20T10:49:00;96629.00;;;17.34;43.89
20930;BME280;21895;47.072;15.132;2023-04-20T10:51:27;96632.00;;;17.47;42.17
20930;BME280;21895;47.072;15.132;2023-04-20T10:54:07;96626.00;;;17.54;44.53
20930;BME280;21895;47.072;15.132;2023-04-20T10:57:14;96628.00;;;17.60;43.37
20930;BME280;21895;47.072;15.132;2023-04-20T10:59:41;96628.00;;;17.64;44.15
20930;BME280;21895;47.072;15.132;2023-04-20T11:02:07;96627.00;;;17.73;44.54
20930;BME280;21895;47.072;15.132;2023-04-20T11:04:36;96625.00;;;17.77;44.24
20930;BME280;21895;47.072;15.132;2023-04-20T11:07:08;96629.00;;;17.95;43.96
20930;BME280;21895;47.072;15.132;2023-04-20T11:09:35;96630.00;;;17.54;42.72
20930;BME280;21895;47.072;15.132;2023-04-20T11:12:08;96623.00;;;17.74;44.76
20930;BME280;21895;47.072;15.132;2023-04-20T11:14:50;96624.00;;;17.81;43.50
20930;BME280;21895;47.072;15.132;2023-04-20T11:17:17;96618.00;;;17.84;43.14
20930;BME280;21895;47.072;15.132;2023-04-20T11:19:43;96620.00;;;18.01;43.14
20930;BME280;21895;47.072;15.132;2023-04-20T11:22:21;96627.00;;;17.82;42.19
20930;BME280;21895;47.072;15.132;2023-04-20T11:24:50;96622.00;;;17.56;43.22
20930;BME280;21895;47.072;15.132;2023-04-20T11:27:20;96627.00;;;17.51;43.24
20930;BME280;21895;47.072;15.132;2023-04-20T11:29:56;96625.00;;;17.51;43.37
20930;BME280;21895;47.072;15.132;2023-04-20T11:32:23;96619.00;;;17.66;43.90
20930;BME280;21895;47.072;15.132;2023-04-20T11:35:00;96624.00;;;17.81;44.20
20930;BME280;21895;47.072;15.132;2023-04-20T11:37:45;96621.00;;;18.03;43.31
20930;BME280;21895;47.072;15.132;2023-04-20T11:40:13;96623.00;;;18.06;43.04
20930;BME280;21895;47.072;15.132;2023-04-20T11:42:40;96621.00;;;17.90;43.26
20930;BME280;21895;47.072;15.132;2023-04-20T11:45:07;96622.00;;;18.04;43.44
20930;BME280;21895;47.072;15.132;2023-04-20T11:47:33;96618.00;;;18.19;43.10
20930;BME280;21895;47.072;15.132;2023-04-20T11:50:00;96619.00;;;17.92;42.81
20930;BME280;21895;47.072;15.132;2023-04-20T11:52:26;96621.00;;;18.17;42.49
20930;BME280;21895;47.072;15.132;2023-04-20T11:54:53;96616.00;;;18.00;41.25
20930;BME280;21895;47.072;15.132;2023-04-20T11:57:19;96618.00;;;17.95;43.41
20930;BME280;21895;47.072;15.132;2023-04-20T11:59:48;96615.00;;;18.00;43.69
20930;BME280;21895;47.072;15.132;2023-04-20T12:02:15;96626.00;;;18.29;42.90
20930;BME280;21895;47.072;15.132;2023-04-20T12:04:42;96620.00;;;18.15;41.05
20930;BME280;21895;47.072;15.132;2023-04-20T12:07:09;96624.00;;;18.00;42.51
20930;BME280;21895;47.072;15.132;2023-04-20T12:09:35;96612.00;;;18.18;41.64
20930;BME280;21895;47.072;15.132;2023-04-20T12:12:04;96611.00;;;18.28;42.04
20930;BME280;21895;47.072;15.132;2023-04-20T12:14:31;96612.00;;;18.25;42.40
20930;BME280;21895;47.072;15.132;2023-04-20T12:17:02;96606.00;;;18.52;41.80
20930;BME280;21895;47.072;15.132;2023-04-20T12:19:30;96605.00;;;18.48;42.20
20930;BME280;21895;47.072;15.132;2023-04-20T12:21:57;96603.00;;;18.40;41.47
20930;BME280;21895;47.072;15.132;2023-04-20T12:24:24;96600.00;;;18.42;41.71
20930;BME280;21895;47.072;15.132;2023-04-20T12:26:50;96597.00;;;18.26;41.75
20930;BME280;21895;47.072;15.132;2023-04-20T12:29:17;96601.00;;;18.28;42.97
20930;BME280;21895;47.072;15.132;2023-04-20T12:31:43;96595.00;;;18.52;43.13
20930;BME280;21895;47.072;15.132;2023-04-20T12:34:10;96600.00;;;18.24;43.21
20930;BME280;21895;47.072;15.132;2023-04-20T12:36:39;96593.00;;;18.35;42.72
20930;BME280;21895;47.072;15.132;2023-04-20T12:39:06;96599.00;;;18.37;42.54
20930;BME280;21895;47.072;15.132;2023-04-20T12:41:33;96591.00;;;18.43;41.50
20930;BME280;21895;47.072;15.132;2023-04-20T12:43:59;96588.00;;;18.29;41.41
20930;BME280;21895;47.072;15.132;2023-04-20T12:46:30;96588.00;;;18.32;41.00
20930;BME280;21895;47.072;15.132;2023-04-20T12:48:56;96584.00;;;18.31;42.09
20930;BME280;21895;47.072;15.132;2023-04-20T12:51:23;96580.00;;;18.29;41.59
20930;BME280;21895;47.072;15.132;2023-04-20T12:53:49;96586.00;;;18.32;41.39
20930;BME280;21895;47.072;15.132;2023-04-20T12:56:16;96586.00;;;18.39;41.65
20930;BME280;21895;47.072;15.132;2023-04-20T12:58:43;96586.00;;;18.20;43.06